createdAt,value
2018-03-08T00:02:25.845Z,96623.25
2018-03-08T00:04:56.353Z,96625.02
2018-03-08T00:07:26.103Z,96624.63
2018-03-08T00:09:57.022Z,96627.36
2018-03-08T00:12:26.645Z,96622.59
2018-03-08T00:14:57.280Z,96626.48
2018-03-08T00:17:27.488Z,96624.70
2018-03-08T00:19:57.163Z,96631.73
2018-03-08T00:22:27.743Z,96624.63
2018-03-08T00:24:57.318Z,96630.29
2018-03-08T00:27:26.945Z,96630.22
2018-03-08T00:29:56.675Z,96632.30
2018-03-08T00:32:26.389Z,96636.58
2018-03-08T00:34:55.930Z,96641.66
2018-03-08T00:37:25.398Z,96646.09
2018-03-08T00:39:55.102Z,96643.50
2018-03-08T00:42:25.428Z,96649.57
2018-03-08T00:44:55.838Z,96649.31
2018-03-08T00:47:25.531Z,96652.79
2018-03-08T00:49:55.063Z,96652.16
2018-03-08T00:52:24.669Z,96652.39
2018-03-08T00:54:55.186Z,96656.83
2018-03-08T00:57:24.776Z,96656.42
2018-03-08T00:59:54.371Z,96653.06
2018-03-08T01:02:24.026Z,96650.25
2018-03-08T01:04:53.801Z,96651.22
2018-03-08T01:07:23.543Z,96655.25
2018-03-08T01:09:53.286Z,96663.78
2018-03-08T01:16:15.940Z,96659.72
2018-03-08T01:18:45.516Z,96655.36
2018-03-08T01:21:15.351Z,96651.03
2018-03-08T01:23:46.163Z,96652.95
2018-03-08T01:26:15.785Z,96658.53
2018-03-08T01:28:45.521Z,96664.16
2018-03-08T01:31:15.008Z,96664.45
2018-03-08T01:33:45.093Z,96666.56
2018-03-08T01:36:30.730Z,96665.20
2018-03-08T01:39:00.494Z,96663.75
2018-03-08T01:41:30.780Z,96667.27
2018-03-08T01:44:01.384Z,96666.64
2018-03-08T01:46:31.104Z,96667.53
2018-03-08T01:49:00.718Z,96673.66
2018-03-08T01:51:30.414Z,96673.88
2018-03-08T01:54:00.440Z,96686.78
2018-03-08T01:56:31.071Z,96685.41
2018-03-08T01:59:01.547Z,96687.34
2018-03-08T02:01:32.241Z,96686.93
2018-03-08T02:04:03.449Z,96687.11
2018-03-08T02:06:33.039Z,96680.75
2018-03-08T02:09:03.545Z,96675.91
2018-03-08T02:11:34.151Z,96670.63
2018-03-08T02:14:03.960Z,96679.39
2018-03-08T02:16:33.544Z,96676.80
2018-03-08T02:19:03.086Z,96675.21
2018-03-08T02:21:32.583Z,96683.56
2018-03-08T02:24:02.541Z,96681.89
2018-03-08T02:26:32.309Z,96677.57
2018-03-08T02:29:02.673Z,96672.25
2018-03-08T02:31:32.300Z,96674.98
2018-03-08T02:34:03.567Z,96672.98
2018-03-08T02:36:33.271Z,96687.21
2018-03-08T02:39:03.016Z,96686.25
2018-03-08T02:41:33.409Z,96692.94
2018-03-08T02:44:04.172Z,96684.10
2018-03-08T02:46:33.890Z,96692.37
2018-03-08T02:49:03.711Z,96691.75
2018-03-08T02:51:33.338Z,96696.95
2018-03-08T02:54:02.819Z,96697.95
2018-03-08T02:56:33.387Z,96705.34
2018-03-08T02:59:04.281Z,96704.38
2018-03-08T03:01:33.992Z,96706.23
2018-03-08T03:04:04.903Z,96708.00
2018-03-08T03:06:35.209Z,96714.98
2018-03-08T03:09:05.784Z,96719.27
2018-03-08T03:11:36.151Z,96714.34
2018-03-08T03:14:06.666Z,96713.31
2018-03-08T03:16:37.039Z,96722.33
2018-03-08T03:19:06.970Z,96717.73
2018-03-08T03:21:36.488Z,96718.07
2018-03-08T03:24:06.907Z,96727.05
2018-03-08T03:26:36.412Z,96725.38
2018-03-08T03:29:06.241Z,96726.11
2018-03-08T03:31:36.148Z,96723.20
2018-03-08T03:34:05.722Z,96728.59
2018-03-08T03:36:35.461Z,96730.92
2018-03-08T03:39:05.732Z,96732.14
2018-03-08T03:41:35.475Z,96729.47
2018-03-08T03:44:05.166Z,96735.93
2018-03-08T03:46:35.493Z,96734.94
2018-03-08T03:49:05.455Z,96734.72
2018-03-08T03:51:35.694Z,96733.34
2018-03-08T03:54:05.615Z,96739.77
2018-03-08T03:56:35.545Z,96736.81
2018-03-08T03:59:06.449Z,96750.95
2018-03-08T04:01:36.155Z,96747.75
2018-03-08T04:04:05.867Z,96752.73
2018-03-08T04:06:35.465Z,96751.69
2018-03-08T04:09:05.258Z,96753.13
2018-03-08T04:11:34.956Z,96757.71
2018-03-08T04:14:04.715Z,96768.87
2018-03-08T04:16:34.688Z,96781.83
2018-03-08T04:19:05.435Z,96782.41
2018-03-08T04:21:35.173Z,96780.78
2018-03-08T04:24:05.688Z,96792.86
2018-03-08T04:26:35.333Z,96796.88
2018-03-08T04:29:04.882Z,96796.88
2018-03-08T04:31:34.734Z,96796.47
2018-03-08T04:34:04.841Z,96793.73
2018-03-08T04:36:34.376Z,96795.75
2018-03-08T04:39:04.945Z,96802.26
2018-03-08T04:41:35.802Z,96804.03
2018-03-08T04:44:05.354Z,96796.86
2018-03-08T04:46:36.758Z,96803.95
2018-03-08T04:49:06.495Z,96807.70
2018-03-08T04:51:36.036Z,96807.30
2018-03-08T04:54:06.331Z,96826.69
2018-03-08T04:56:36.740Z,96818.55
2018-03-08T04:59:07.161Z,96819.38
2018-03-08T05:01:37.476Z,96823.80
2018-03-08T05:04:07.057Z,96830.95
2018-03-08T05:06:36.899Z,96831.09
2018-03-08T05:09:06.553Z,96824.81
2018-03-08T05:11:38.010Z,96832.05
2018-03-08T05:14:07.687Z,96841.53
2018-03-08T05:16:38.433Z,96845.31
2018-03-08T05:19:08.402Z,96844.27
2018-03-08T05:21:37.894Z,96854.16
2018-03-08T05:24:07.360Z,96845.32
2018-03-08T05:26:37.171Z,96848.20
2018-03-08T05:29:06.693Z,96848.20
2018-03-08T05:31:36.480Z,96855.20
2018-03-08T05:34:06.910Z,96860.91
2018-03-08T05:36:36.738Z,96868.05
2018-03-08T05:39:06.327Z,96873.11
2018-03-08T05:41:35.806Z,96876.58
2018-03-08T05:44:06.842Z,96878.09
2018-03-08T05:46:37.347Z,96879.86
2018-03-08T05:49:06.886Z,96879.77
2018-03-08T05:51:36.534Z,96887.73
2018-03-08T05:54:06.198Z,96899.77
2018-03-08T05:56:35.906Z,96901.14
2018-03-08T05:59:05.397Z,96907.30
2018-03-08T06:01:36.004Z,96914.80
2018-03-08T06:04:05.585Z,96913.49
2018-03-08T06:06:36.414Z,96914.54
2018-03-08T06:09:08.458Z,96917.04
2018-03-08T06:11:38.826Z,96930.30
2018-03-08T06:14:10.243Z,96937.77
2018-03-08T06:16:40.618Z,96938.48
2018-03-08T06:19:12.814Z,96929.16
2018-03-08T06:21:43.651Z,96930.94
2018-03-08T06:24:14.843Z,96934.89
2018-03-08T06:29:25.560Z,96963.03
2018-03-08T06:34:37.349Z,96974.77
2018-03-08T06:37:09.075Z,96967.73
2018-03-08T06:39:43.051Z,96969.64
2018-03-08T06:42:13.829Z,96963.45
2018-03-08T06:44:45.218Z,96969.97
2018-03-08T06:47:17.763Z,96979.91
2018-03-08T06:49:48.422Z,96986.36
2018-03-08T06:52:18.663Z,96986.36
2018-03-08T06:54:48.314Z,96991.25
2018-03-08T06:57:17.835Z,96992.20
2018-03-08T06:59:47.428Z,96995.97
2018-03-08T07:02:17.394Z,97001.48
2018-03-08T07:04:48.951Z,97009.77
2018-03-08T07:07:19.081Z,97011.94
2018-03-08T07:09:50.572Z,97021.42
2018-03-08T07:12:20.604Z,97020.97
2018-03-08T07:14:50.749Z,97027.77
2018-03-08T07:17:20.918Z,97029.92
2018-03-08T07:19:51.339Z,97041.72
2018-03-08T07:22:23.350Z,97050.28
2018-03-08T07:24:53.172Z,97047.65
2018-03-08T07:27:32.126Z,97046.83
2018-03-08T07:30:03.836Z,97056.22
2018-03-08T07:32:34.246Z,97056.53
2018-03-08T07:35:05.552Z,97059.77
2018-03-08T07:37:36.148Z,97060.91
2018-03-08T07:40:08.621Z,97066.15
2018-03-08T07:42:57.862Z,97071.17
2018-03-08T07:45:32.364Z,97068.89
2018-03-08T07:48:02.701Z,97070.27
2018-03-08T07:50:32.934Z,97077.14
2018-03-08T07:53:03.594Z,97082.47
2018-03-08T07:55:33.321Z,97091.27
2018-03-08T07:58:02.889Z,97079.94
2018-03-08T08:00:32.930Z,97086.95
2018-03-08T08:03:02.631Z,97091.64
2018-03-08T08:05:50.487Z,97095.81
2018-03-08T08:11:32.661Z,97104.84
2018-03-08T08:14:02.417Z,97115.49
2018-03-08T08:16:32.074Z,97108.08
2018-03-08T08:19:02.046Z,97109.21
2018-03-08T08:21:31.742Z,97113.05
2018-03-08T08:24:01.346Z,97116.50
2018-03-08T08:26:31.401Z,97125.66
2018-03-08T08:29:01.132Z,97128.56
2018-03-08T08:31:30.947Z,97134.53
2018-03-08T08:34:00.749Z,97139.50
2018-03-08T08:36:30.462Z,97133.45
2018-03-08T08:39:01.279Z,97134.77
2018-03-08T08:41:31.976Z,97135.27
2018-03-08T08:50:25.939Z,97149.98
2018-03-08T08:52:57.109Z,97154.09
2018-03-08T08:55:30.100Z,97155.22
2018-03-08T08:58:02.174Z,97160.78
2018-03-08T09:00:32.909Z,97154.36
2018-03-08T09:03:02.872Z,97154.91
2018-03-08T09:05:32.537Z,97156.91
2018-03-08T09:08:02.395Z,97158.55
2018-03-08T09:10:33.097Z,97162.19
2018-03-08T09:13:03.834Z,97155.95
2018-03-08T09:15:33.376Z,97161.28
2018-03-08T09:18:04.126Z,97157.09
2018-03-08T09:20:34.490Z,97162.42
2018-03-08T09:23:05.034Z,97161.47
2018-03-08T09:25:34.766Z,97160.09
2018-03-08T09:28:05.178Z,97161.79
2018-03-08T09:30:34.764Z,97158.19
2018-03-08T09:33:05.119Z,97159.85
2018-03-08T09:35:35.015Z,97158.76
2018-03-08T09:38:04.929Z,97165.21
2018-03-08T09:40:35.319Z,97168.59
2018-03-08T09:43:05.260Z,97171.00
2018-03-08T09:45:35.238Z,97169.50
2018-03-08T09:48:05.751Z,97172.70
2018-03-08T09:50:35.418Z,97176.80
2018-03-08T09:53:05.648Z,97177.30
2018-03-08T09:55:35.977Z,97186.17
2018-03-08T09:58:05.476Z,97180.84
2018-03-08T10:00:35.232Z,97179.89
2018-03-08T10:03:05.118Z,97178.62
2018-03-08T10:05:36.030Z,97182.03
2018-03-08T10:08:07.243Z,97182.03
2018-03-08T10:10:37.695Z,97188.72
2018-03-08T10:13:08.410Z,97186.77
2018-03-08T10:15:39.659Z,97187.59
2018-03-08T10:18:09.242Z,97188.05
2018-03-08T10:20:38.952Z,97184.91
2018-03-08T10:23:09.486Z,97193.77
2018-03-08T10:25:39.155Z,97193.51
2018-03-08T10:28:09.478Z,97193.91
2018-03-08T10:30:39.815Z,97198.42
2018-03-08T10:33:09.559Z,97196.93
2018-03-08T10:35:39.366Z,97194.38
2018-03-08T10:38:08.848Z,97198.06
2018-03-08T10:40:45.376Z,97192.59
2018-03-08T10:43:08.200Z,97195.87
2018-03-08T10:45:37.751Z,97203.67
2018-03-08T10:48:08.103Z,97205.44
2018-03-08T10:50:38.481Z,97200.84
2018-03-08T10:53:09.388Z,97207.12
2018-03-08T10:55:39.676Z,97209.45
2018-03-08T10:58:16.425Z,97214.50
2018-03-08T11:00:54.636Z,97213.13
2018-03-08T11:03:30.250Z,97217.78
2018-03-08T14:21:42.030Z,97139.37
2018-03-08T14:24:14.292Z,97144.64
2018-03-08T14:26:45.593Z,97151.73
2018-03-08T14:29:17.188Z,97142.95
2018-03-08T14:31:49.206Z,97141.63
2018-03-08T16:04:58.412Z,97159.73
2018-03-08T16:20:25.546Z,97185.12
2018-03-08T16:22:56.767Z,97182.14
2018-03-08T16:25:27.339Z,97179.70
2018-03-08T16:27:59.099Z,97186.30
2018-03-08T16:30:29.419Z,97184.12
2018-03-08T16:32:59.814Z,97193.41
2018-03-08T16:35:32.294Z,97192.47
2018-03-08T16:38:11.042Z,97199.07
2018-03-08T16:40:43.227Z,97194.73
2018-03-08T16:43:16.027Z,97200.36
2018-03-08T16:45:54.126Z,97199.28
2018-03-08T16:48:31.319Z,97210.30
2018-03-08T16:51:07.253Z,97209.89
2018-03-08T16:53:41.392Z,97218.30
2018-03-08T16:56:22.361Z,97214.11
2018-03-08T16:58:56.857Z,97217.85
2018-03-08T17:01:33.450Z,97215.67
2018-03-08T17:06:59.228Z,97227.07
2018-03-08T17:09:31.248Z,97230.14
2018-03-08T17:12:03.722Z,97227.66
2018-03-08T17:14:36.379Z,97238.67
2018-03-08T17:17:10.558Z,97237.59
2018-03-08T17:19:46.399Z,97233.61
2018-03-08T17:22:23.222Z,97243.16
2018-03-08T17:24:56.911Z,97241.23
2018-03-08T17:27:39.649Z,97244.45
2018-03-08T17:33:08.793Z,97256.61
2018-03-08T17:35:42.701Z,97258.44
2018-03-08T17:38:18.166Z,97259.78
2018-03-08T17:43:28.900Z,97266.06
2018-03-08T17:46:03.055Z,97269.38
2018-03-08T17:48:37.947Z,97272.84
2018-03-08T17:51:29.014Z,97278.91
2018-03-08T17:54:12.572Z,97281.86
2018-03-08T17:56:59.319Z,97286.79
2018-03-08T17:59:33.077Z,97291.23
2018-03-08T18:02:08.512Z,97285.48
2018-03-08T18:04:43.904Z,97283.67
2018-03-08T18:07:17.826Z,97289.94
2018-03-08T18:12:58.492Z,97296.59
2018-03-08T18:15:40.880Z,97293.18
2018-03-08T18:18:18.770Z,97303.01
2018-03-08T18:20:55.692Z,97306.82
2018-03-08T18:23:33.053Z,97306.77
2018-03-08T18:26:21.893Z,97309.92
2018-03-08T18:28:54.122Z,97318.09
2018-03-08T18:31:30.363Z,97313.38
2018-03-08T18:34:06.890Z,97327.34
2018-03-08T18:36:42.870Z,97325.70
2018-03-08T18:39:16.438Z,97329.27
2018-03-08T18:41:51.220Z,97340.39
2018-03-08T18:44:27.764Z,97335.02
2018-03-08T18:47:04.185Z,97345.30
2018-03-08T18:49:41.163Z,97340.52
2018-03-08T18:52:18.758Z,97337.66
2018-03-08T18:54:52.316Z,97341.53
2018-03-08T18:57:29.728Z,97351.42
2018-03-08T19:00:02.967Z,97354.91
2018-03-08T19:02:38.408Z,97350.79
2018-03-08T19:07:59.724Z,97342.17
2018-03-08T19:10:33.869Z,97354.20
2018-03-08T19:13:11.166Z,97355.56
2018-03-08T19:15:46.572Z,97355.65
2018-03-08T19:18:21.854Z,97368.75
2018-03-08T19:20:57.267Z,97371.30
2018-03-08T19:23:31.312Z,97380.88
2018-03-08T19:26:07.921Z,97374.56
2018-03-08T19:28:45.812Z,97368.77
2018-03-08T19:31:16.513Z,97378.33
2018-03-08T19:33:51.908Z,97382.22
2018-03-08T19:36:30.870Z,97370.34
2018-03-08T19:39:04.145Z,97379.67
2018-03-08T19:41:37.293Z,97383.55
2018-03-08T19:44:14.346Z,97380.71
2018-03-08T19:46:50.951Z,97381.56
